»·PEaware :: N5758Q KTSP-KUDD

N5758Q :: KTSP-KUDD

FLIGHT INFORMATION

Flight Status: Arrived
Operator: Privately registered:
United States
More flights under this callsign
Pilot: Brad L. (9580)
Aircraft: MOONEY M-20 201 202 205 220 ATS MSE
(M20P)
More flights by this aircraft type
Origin: KTSP Tehachapi Mun
United States
Destination: KUDD Bermuda Dunes
United States
More flights between these airports :: More routes between these airports
Route: +PMD V386 SOGGI V386 PSP
File this flight plan on PilotEdge
Remarks: -
Altitude:
(Current/Filed)
11,000ft
Speed:
(Current/Filed)
130kts
Departed: 12-Jan-19 05:04 PM
Arrived: 12-Jan-19 06:07 PM
Distance/Time
Traveled:
136nm/1:02
Distance/Time
To Go:
Arrived

Flight Plot

Page will automatically refresh every two minutes.

Flight plan parsing failed; only flown route is shown


Map Options




Map Legend


Flown Route
Filed Route
Departure Airport
Arrival Airport
Navaid (VOR, NDB)
Fix

Horizontal Profiles

Position Reports

Time Latitude Longitude Heading Altitude Ground
Speed
12-Jan-19 16:41 35.135432 -118.441093 22 4003ft 0kts
12-Jan-19 16:42 35.135432 -118.441093 22 4003ft 0kts
12-Jan-19 16:43 35.135432 -118.441093 22 4003ft 0kts
12-Jan-19 16:44 35.135432 -118.441093 22 4003ft 0kts
12-Jan-19 16:45 35.135432 -118.441093 22 4003ft 0kts
12-Jan-19 16:46 35.135432 -118.441093 22 4003ft 0kts
12-Jan-19 16:47 35.135432 -118.441093 22 4003ft 0kts
12-Jan-19 16:48 35.135432 -118.441093 22 4003ft 0kts
12-Jan-19 16:49 35.135432 -118.441093 22 4003ft 0kts
12-Jan-19 16:50 35.135432 -118.441093 22 4003ft 0kts
12-Jan-19 16:51 35.135432 -118.441093 22 4003ft 0kts
12-Jan-19 16:53 35.135432 -118.441093 22 4003ft 0kts
12-Jan-19 16:54 35.135432 -118.441093 22 4003ft 0kts
12-Jan-19 16:55 35.135432 -118.441093 22 4003ft 0kts
12-Jan-19 16:56 35.135432 -118.441093 22 4003ft 0kts
12-Jan-19 16:57 35.135432 -118.441093 22 4003ft 0kts
12-Jan-19 16:58 35.135432 -118.441093 22 4003ft 0kts
12-Jan-19 16:59 35.135979 -118.441760 303 4003ft 12kts
12-Jan-19 17:00 35.137900 -118.444936 26 4002ft 0kts
12-Jan-19 17:01 35.137900 -118.444936 26 4002ft 0kts
12-Jan-19 17:02 35.137900 -118.444936 26 4002ft 0kts
12-Jan-19 17:03 35.138026 -118.444806 43 4003ft 3kts
12-Jan-19 17:04 35.134083 -118.437653 122 4084ft 74kts
12-Jan-19 17:05 35.116724 -118.416706 150 4846ft 101kts
12-Jan-19 17:06 35.090864 -118.401813 144 5690ft 107kts
12-Jan-19 17:07 35.061967 -118.379153 143 5919ft 149kts
12-Jan-19 17:08 35.023882 -118.353514 152 6012ft 167kts
12-Jan-19 17:09 34.985070 -118.325635 146 6467ft 156kts
12-Jan-19 17:10 34.948213 -118.299269 145 6953ft 154kts
12-Jan-19 17:11 34.911704 -118.272181 146 7444ft 156kts
12-Jan-19 17:12 34.874722 -118.244634 147 7941ft 157kts
12-Jan-19 17:13 34.837440 -118.216930 148 8445ft 157kts
12-Jan-19 17:13 34.807081 -118.194361 148 8857ft 156kts
12-Jan-19 17:14 34.770434 -118.167119 148 9356ft 156kts
12-Jan-19 17:15 34.733999 -118.140062 148 9853ft 155kts
12-Jan-19 17:17 34.692238 -118.109090 148 10428ft 152kts
12-Jan-19 17:18 34.656992 -118.083154 150 10919ft 150kts
12-Jan-19 17:18 34.631590 -118.054180 97 10990ft 164kts
12-Jan-19 17:20 34.625144 -117.988205 95 11007ft 177kts
12-Jan-19 17:21 34.619484 -117.929063 95 10996ft 182kts
12-Jan-19 17:21 34.615136 -117.879391 95 10956ft 183kts
12-Jan-19 17:22 34.609874 -117.818700 95 10954ft 183kts
12-Jan-19 17:23 34.604426 -117.757569 95 10948ft 183kts
12-Jan-19 17:24 34.598929 -117.696421 95 10943ft 183kts
12-Jan-19 17:25 34.593431 -117.635658 95 10937ft 183kts
12-Jan-19 17:26 34.587955 -117.574274 95 10933ft 183kts
12-Jan-19 17:27 34.583016 -117.513236 94 10933ft 183kts
12-Jan-19 17:28 34.578236 -117.454022 94 10932ft 174kts
12-Jan-19 17:29 34.573610 -117.397303 94 10933ft 170kts
12-Jan-19 17:30 34.568986 -117.340500 94 10933ft 170kts
12-Jan-19 17:31 34.565742 -117.300655 94 10937ft 164kts
12-Jan-19 17:32 34.563907 -117.278325 94 10974ft 157kts
12-Jan-19 17:33 34.559623 -117.226032 94 10982ft 168kts
12-Jan-19 17:34 34.553788 -117.168085 98 10980ft 177kts
12-Jan-19 17:35 34.545663 -117.108807 98 10980ft 181kts
12-Jan-19 17:36 34.538525 -117.048358 96 10979ft 182kts
12-Jan-19 17:37 34.532312 -116.987796 95 10979ft 182kts
12-Jan-19 17:38 34.526639 -116.926866 95 10979ft 182kts
12-Jan-19 17:39 34.521020 -116.867146 95 10979ft 182kts
12-Jan-19 17:40 34.515401 -116.806469 95 10979ft 182kts
12-Jan-19 17:41 34.509813 -116.745912 95 10979ft 182kts
12-Jan-19 17:42 34.501919 -116.685574 131 10977ft 182kts
12-Jan-19 17:43 34.455990 -116.660909 160 10979ft 182kts
12-Jan-19 17:44 34.409516 -116.640468 162 10942ft 184kts
12-Jan-19 17:45 34.361284 -116.621060 162 10941ft 183kts
12-Jan-19 17:46 34.313706 -116.601914 162 10942ft 183kts
12-Jan-19 17:47 34.269025 -116.583930 162 10942ft 183kts
12-Jan-19 17:48 34.226445 -116.566570 164 10930ft 180kts
12-Jan-19 17:49 34.179448 -116.549958 165 10928ft 178kts
12-Jan-19 17:50 34.133726 -116.533726 165 10946ft 169kts
12-Jan-19 17:51 34.089415 -116.517924 165 10954ft 167kts
12-Jan-19 17:52 34.044921 -116.507109 183 10955ft 162kts
12-Jan-19 17:53 34.002345 -116.503648 179 10391ft 144kts
12-Jan-19 17:54 33.965666 -116.506259 195 9266ft 132kts
12-Jan-19 17:55 33.931344 -116.515416 195 8167ft 125kts
12-Jan-19 17:56 33.898774 -116.526622 198 7064ft 122kts
12-Jan-19 17:57 33.865728 -116.529251 142 5797ft 132kts
12-Jan-19 17:58 33.846205 -116.493790 127 4685ft 124kts
12-Jan-19 17:59 33.828350 -116.458757 125 3575ft 119kts
12-Jan-19 18:00 33.812829 -116.425048 119 2661ft 111kts
12-Jan-19 18:01 33.798942 -116.396943 125 2163ft 88kts
12-Jan-19 18:02 33.787348 -116.369175 120 1687ft 94kts
12-Jan-19 18:03 33.775441 -116.340833 123 1171ft 95kts
12-Jan-19 18:04 33.763524 -116.312109 119 623ft 96kts
12-Jan-19 18:05 33.752495 -116.284717 120 173ft 80kts
12-Jan-19 18:06 33.749139 -116.276745 297 76ft 19kts
12-Jan-19 18:07 33.748898 -116.277215 116 76ft 0kts
12-Jan-19 18:08 33.748898 -116.277215 116 76ft 0kts
12-Jan-19 18:09 33.748898 -116.277215 116 76ft 0kts
12-Jan-19 18:10 33.748170 -116.275438 117 76ft 14kts
12-Jan-19 18:11 33.746601 -116.272767 79 75ft 0kts

Navigation Log

Ident Type
Flight plan parsing failed, navigation log unavailable